Time;durP1;ratioP1;P1;durP2;ratioP2;P2;SDS_P1;SDS_P2;PMS_P1;PMS_P2;Temp;Humidity;BMP_temperature;BMP_pressure;BME280_temperature;BME280_humidity;BME280_pressure;Samples;Min_cycle;Max_cycle;Signal;HPM_P1;HPM_P2
2022/09/13 00:00:32;;;;;;;0.70;0.70;;;16.20;99.90;;;;;;5062220;28;20203;-62
2022/09/13 00:03:00;;;;;;;0.70;0.70;;;16.20;99.90;;;;;;5064585;28;20230;-62
2022/09/13 00:05:28;;;;;;;0.63;0.63;;;16.10;99.90;;;;;;5054767;28;20740;-62
2022/09/13 00:07:55;;;;;;;0.70;0.70;;;16.10;99.90;;;;;;5063725;28;20214;-61
2022/09/13 00:10:23;;;;;;;0.63;0.63;;;16.10;99.90;;;;;;5063657;28;20242;-62
2022/09/13 00:12:50;;;;;;;0.97;0.97;;;16.10;99.90;;;;;;5064383;28;20203;-62
2022/09/13 00:15:17;;;;;;;0.70;0.70;;;16.10;99.90;;;;;;5053578;28;20589;-62
2022/09/13 00:17:44;;;;;;;0.65;0.65;;;16.10;99.90;;;;;;5057142;28;20538;-62
2022/09/13 00:20:12;;;;;;;0.83;0.70;;;16.10;99.90;;;;;;5063582;28;20226;-61
2022/09/13 00:22:39;;;;;;;0.73;0.73;;;16.10;99.90;;;;;;5063743;28;20199;-62
2022/09/13 00:25:07;;;;;;;0.60;0.60;;;16.00;99.90;;;;;;5062885;28;20230;-62
2022/09/13 00:27:35;;;;;;;0.53;0.50;;;16.00;99.90;;;;;;5064901;28;20199;-62
2022/09/13 00:30:03;;;;;;;0.77;0.75;;;16.00;99.90;;;;;;5055972;28;20563;-60
2022/09/13 00:32:30;;;;;;;0.70;0.70;;;15.90;99.90;;;;;;5054789;28;20229;-62
2022/09/13 00:34:56;;;;;;;0.65;0.60;;;15.90;99.90;;;;;;5060957;28;20234;-62
2022/09/13 00:37:25;;;;;;;0.70;0.70;;;15.90;99.90;;;;;;5060671;28;20665;-62
2022/09/13 00:39:52;;;;;;;0.77;0.77;;;15.90;99.90;;;;;;5065073;28;20196;-62
2022/09/13 00:42:24;;;;;;;0.70;0.70;;;15.90;99.90;;;;;;5061925;28;20677;-61
2022/09/13 00:44:57;;;;;;;0.98;0.82;;;15.90;99.90;;;;;;5054468;28;20223;-61
2022/09/13 00:47:31;;;;;;;0.77;0.77;;;15.90;99.90;;;;;;5061485;28;20211;-62
2022/09/13 00:50:06;;;;;;;0.70;0.70;;;15.90;99.90;;;;;;5063061;28;20199;-62
2022/09/13 00:52:37;;;;;;;0.50;0.50;;;15.80;99.90;;;;;;5063414;28;20308;-62
2022/09/13 00:55:07;;;;;;;0.77;0.60;;;15.80;99.90;;;;;;5062983;28;20223;-61
2022/09/13 00:57:36;;;;;;;0.70;0.70;;;15.80;99.90;;;;;;5057771;28;20205;-61
2022/09/13 01:00:10;;;;;;;0.52;0.50;;;15.80;99.90;;;;;;5062489;28;20207;-62
2022/09/13 01:02:38;;;;;;;0.70;0.70;;;15.90;99.90;;;;;;5059239;28;20207;-62
2022/09/13 01:05:06;;;;;;;0.60;0.60;;;15.90;99.90;;;;;;5054487;28;20230;-62
2022/09/13 01:07:34;;;;;;;0.82;0.82;;;15.90;99.90;;;;;;5062665;28;20207;-63
2022/09/13 01:10:06;;;;;;;0.65;0.65;;;16.00;99.90;;;;;;5062809;28;20203;-60
2022/09/13 01:12:39;;;;;;;0.70;0.70;;;16.00;99.90;;;;;;5063092;28;20550;-62
2022/09/13 01:15:08;;;;;;;0.87;0.87;;;16.00;99.90;;;;;;5054796;28;20226;-62
2022/09/13 01:17:38;;;;;;;0.82;0.82;;;15.90;99.90;;;;;;5060488;28;20209;-62
2022/09/13 01:20:06;;;;;;;0.67;0.67;;;16.00;99.90;;;;;;5062908;28;20748;-62
2022/09/13 01:22:57;;;;;;;0.60;0.60;;;16.00;99.90;;;;;;5061608;28;20199;-62
2022/09/13 01:26:07;;;;;;;0.47;0.47;;;15.90;99.90;;;;;;5060282;28;20235;-62
2022/09/13 01:28:54;;;;;;;0.77;0.70;;;15.90;99.90;;;;;;4965480;28;20198;-62
2022/09/13 01:31:30;;;;;;;0.70;0.70;;;15.90;99.90;;;;;;4970453;28;20211;-62
2022/09/13 01:34:06;;;;;;;0.60;0.60;;;15.80;99.90;;;;;;4969504;28;20221;-62
2022/09/13 01:36:57;;;;;;;0.40;0.40;;;15.80;99.90;;;;;;4969739;28;20321;-61
2022/09/13 01:39:38;;;;;;;0.60;0.60;;;15.70;99.90;;;;;;4970266;28;20209;-62
2022/09/13 01:42:16;;;;;;;0.77;0.77;;;15.70;99.90;;;;;;4970710;28;20596;-62
2022/09/13 01:44:59;;;;;;;0.63;0.63;;;15.80;99.90;;;;;;4967042;28;20293;-62
2022/09/13 01:47:32;;;;;;;0.77;0.77;;;15.70;99.90;;;;;;4971567;28;20210;-61
2022/09/13 01:50:11;;;;;;;0.60;0.60;;;15.70;99.90;;;;;;4974333;28;20689;-61
2022/09/13 01:52:47;;;;;;;0.63;0.63;;;15.60;99.90;;;;;;4974041;28;20219;-61
2022/09/13 01:55:23;;;;;;;0.60;0.60;;;15.50;99.90;;;;;;4973238;28;20704;-61
2022/09/13 01:57:55;;;;;;;0.60;0.60;;;15.40;99.90;;;;;;4973449;28;20209;-61
2022/09/13 02:00:22;;;;;;;0.60;0.60;;;15.40;99.90;;;;;;4973839;28;20203;-61
2022/09/13 02:02:55;;;;;;;0.65;0.65;;;15.40;99.90;;;;;;4974488;28;20213;-61
2022/09/13 02:05:29;;;;;;;0.47;0.47;;;15.30;99.90;;;;;;5028444;28;20703;-61
2022/09/13 02:08:00;;;;;;;0.70;0.70;;;15.30;99.90;;;;;;5065855;28;20298;-61
2022/09/13 02:10:33;;;;;;;0.63;0.63;;;15.20;99.90;;;;;;5065412;28;20196;-61
2022/09/13 02:13:01;;;;;;;0.73;0.70;;;15.30;99.90;;;;;;5066294;28;20650;-61
2022/09/13 02:15:33;;;;;;;0.97;0.70;;;15.20;99.90;;;;;;5054839;28;20229;-62
2022/09/13 02:18:07;;;;;;;0.73;0.73;;;15.20;99.90;;;;;;5067308;28;20226;-61
2022/09/13 02:20:38;;;;;;;0.67;0.67;;;15.10;99.90;;;;;;5059204;28;20199;-62
2022/09/13 02:23:10;;;;;;;0.87;0.70;;;15.10;99.90;;;;;;5069182;28;20231;-61
2022/09/13 02:25:39;;;;;;;0.80;0.80;;;15.20;99.90;;;;;;5060780;28;20228;-62
2022/09/13 02:28:09;;;;;;;0.60;0.60;;;15.20;99.90;;;;;;5069329;28;20210;-61
2022/09/13 02:30:41;;;;;;;0.50;0.50;;;15.20;99.90;;;;;;5057557;28;20758;-62
2022/09/13 02:33:14;;;;;;;0.50;0.50;;;15.30;99.90;;;;;;5054343;28;20200;-62
2022/09/13 02:35:46;;;;;;;0.80;0.80;;;15.30;99.90;;;;;;5060900;28;20235;-61
2022/09/13 02:38:25;;;;;;;0.73;0.73;;;15.30;99.90;;;;;;5062904;28;20246;-61
2022/09/13 02:40:58;;;;;;;0.80;0.80;;;15.30;99.90;;;;;;5066909;28;20203;-62
2022/09/13 02:43:31;;;;;;;0.70;0.70;;;15.30;99.90;;;;;;5064201;28;20571;-62
2022/09/13 02:46:11;;;;;;;0.87;0.87;;;15.20;99.90;;;;;;5060382;28;20235;-62
2022/09/13 02:48:49;;;;;;;0.80;0.80;;;15.20;99.90;;;;;;5058432;28;20266;-62
2022/09/13 02:51:24;;;;;;;0.80;0.80;;;15.10;99.90;;;;;;5073310;28;20196;-62
2022/09/13 02:53:59;;;;;;;0.80;0.80;;;15.10;99.90;;;;;;5061404;28;20202;-62
2022/09/13 02:56:33;;;;;;;0.70;0.70;;;15.10;99.90;;;;;;5067905;28;20740;-62
2022/09/13 02:59:04;;;;;;;0.80;0.80;;;15.00;99.90;;;;;;5066307;28;20417;-61
2022/09/13 03:01:32;;;;;;;0.70;0.70;;;15.00;99.90;;;;;;5066124;28;20631;-62
2022/09/13 03:04:00;;;;;;;0.70;0.70;;;15.00;99.90;;;;;;5069517;28;20200;-61
2022/09/13 03:06:28;;;;;;;1.03;0.90;;;14.90;99.90;;;;;;5066235;28;20670;-62
2022/09/13 03:08:58;;;;;;;1.07;0.97;;;14.90;99.90;;;;;;5067847;28;20294;-62
2022/09/13 03:11:38;;;;;;;0.70;0.70;;;15.00;99.90;;;;;;5063168;28;20294;-61
2022/09/13 03:14:19;;;;;;;2.28;0.70;;;15.00;99.90;;;;;;5058484;28;20541;-62
2022/09/13 03:17:05;;;;;;;0.60;0.60;;;15.00;99.90;;;;;;5056964;28;20223;-62
2022/09/13 03:19:46;;;;;;;0.70;0.70;;;15.00;99.90;;;;;;5064973;28;20931;-60
2022/09/13 03:22:25;;;;;;;0.80;0.80;;;15.00;99.90;;;;;;5060795;28;20296;-61
2022/09/13 03:24:58;;;;;;;0.60;0.60;;;15.10;99.90;;;;;;5058713;28;20584;-61
2022/09/13 03:27:33;;;;;;;0.90;0.90;;;15.20;99.90;;;;;;5063423;28;20230;-60
2022/09/13 03:30:05;;;;;;;0.80;0.80;;;15.20;99.90;;;;;;5064607;28;20285;-60
2022/09/13 03:32:40;;;;;;;0.97;0.90;;;15.20;99.90;;;;;;5063450;28;20211;-62
2022/09/13 03:35:17;;;;;;;1.00;0.90;;;15.20;99.90;;;;;;5064159;28;20245;-62
2022/09/13 03:37:57;;;;;;;0.60;0.60;;;15.20;99.90;;;;;;5064228;28;20566;-62
2022/09/13 03:40:34;;;;;;;0.80;0.80;;;15.20;99.90;;;;;;5060267;28;20687;-62
2022/09/13 03:43:04;;;;;;;0.80;0.80;;;15.20;99.90;;;;;;5056931;28;20214;-61
2022/09/13 03:45:35;;;;;;;0.80;0.80;;;15.20;99.90;;;;;;5066109;28;20227;-61
2022/09/13 03:48:04;;;;;;;0.77;0.60;;;15.20;99.90;;;;;;5056435;28;20216;-61
2022/09/13 03:50:33;;;;;;;0.60;0.60;;;15.10;99.90;;;;;;5067945;28;20208;-60
2022/09/13 03:53:03;;;;;;;0.77;0.77;;;15.20;99.90;;;;;;5060982;28;20654;-61
2022/09/13 03:55:32;;;;;;;0.50;0.50;;;15.20;99.90;;;;;;5064445;28;20224;-60
2022/09/13 03:57:59;;;;;;;0.57;0.57;;;15.10;99.90;;;;;;5060512;28;20206;-61
2022/09/13 04:00:28;;;;;;;0.57;0.57;;;15.20;99.90;;;;;;5063580;28;20204;-60
2022/09/13 04:02:55;;;;;;;0.60;0.60;;;15.10;99.90;;;;;;5064620;28;20208;-61
2022/09/13 04:05:22;;;;;;;0.70;0.43;;;15.10;99.90;;;;;;5056314;28;20281;-61
2022/09/13 04:07:50;;;;;;;0.73;0.73;;;15.10;99.90;;;;;;5066574;28;20215;-61
2022/09/13 04:10:17;;;;;;;0.60;0.60;;;15.20;99.90;;;;;;5062130;28;20212;-60
2022/09/13 04:12:43;;;;;;;0.50;0.50;;;15.20;99.90;;;;;;5061028;28;20200;-61
2022/09/13 04:15:10;;;;;;;0.60;0.60;;;15.20;99.90;;;;;;5063566;28;20227;-62
2022/09/13 04:17:37;;;;;;;0.73;0.60;;;15.30;99.90;;;;;;5060735;28;20210;-62
2022/09/13 04:20:05;;;;;;;1.57;0.90;;;15.40;99.90;;;;;;5067940;28;20207;-61
2022/09/13 04:22:32;;;;;;;0.70;0.70;;;15.50;99.90;;;;;;5061762;28;20200;-61
2022/09/13 04:25:00;;;;;;;0.73;0.57;;;15.40;99.90;;;;;;5062669;28;20233;-60
2022/09/13 04:27:27;;;;;;;0.50;0.50;;;15.40;99.90;;;;;;5061011;28;20683;-61
2022/09/13 04:29:54;;;;;;;1.10;0.70;;;15.40;99.90;;;;;;5060182;28;20231;-62
2022/09/13 04:32:20;;;;;;;0.67;0.67;;;15.30;99.90;;;;;;5066435;28;20206;-60
2022/09/13 04:34:47;;;;;;;0.60;0.60;;;15.30;99.90;;;;;;5048229;28;20227;-60
2022/09/13 04:37:14;;;;;;;0.60;0.60;;;15.30;99.90;;;;;;5062443;28;20200;-61
2022/09/13 04:39:41;;;;;;;0.53;0.53;;;15.40;99.90;;;;;;5064495;28;20199;-62
2022/09/13 04:42:10;;;;;;;0.50;0.50;;;15.40;99.90;;;;;;5065152;28;20294;-62
2022/09/13 04:44:37;;;;;;;0.70;0.70;;;15.50;99.90;;;;;;5063564;28;20207;-60
2022/09/13 04:47:04;;;;;;;0.70;0.70;;;15.40;99.90;;;;;;5053345;28;20588;-61
2022/09/13 04:49:31;;;;;;;0.70;0.70;;;15.40;99.90;;;;;;5062970;28;20196;-61
2022/09/13 04:51:57;;;;;;;0.75;0.75;;;15.40;99.90;;;;;;5055742;28;20294;-62
2022/09/13 04:54:25;;;;;;;0.50;0.50;;;15.40;99.90;;;;;;5062657;28;20207;-60
2022/09/13 04:56:52;;;;;;;0.70;0.70;;;15.30;99.90;;;;;;5059286;28;20226;-61
2022/09/13 04:59:20;;;;;;;0.50;0.50;;;15.30;99.90;;;;;;5052160;28;20223;-60
2022/09/13 05:01:47;;;;;;;0.45;0.45;;;15.30;99.90;;;;;;5060310;28;20196;-60
2022/09/13 05:04:14;;;;;;;0.50;0.50;;;15.20;99.90;;;;;;5057285;28;20208;-61
2022/09/13 05:06:41;;;;;;;0.67;0.60;;;15.20;99.90;;;;;;5056155;28;20670;-60
2022/09/13 05:09:12;;;;;;;0.70;0.70;;;15.10;99.90;;;;;;5054983;28;20207;-60
2022/09/13 05:11:39;;;;;;;0.73;0.73;;;15.00;99.90;;;;;;5057843;28;20966;-60
2022/09/13 05:14:06;;;;;;;0.70;0.70;;;15.00;99.90;;;;;;5060534;28;20200;-61
2022/09/13 05:16:34;;;;;;;0.70;0.70;;;15.10;99.90;;;;;;5062854;28;20223;-60
2022/09/13 05:19:01;;;;;;;0.60;0.60;;;15.10;99.90;;;;;;5058963;28;20243;-60
2022/09/13 05:21:29;;;;;;;0.67;0.67;;;15.10;99.90;;;;;;5056430;28;20199;-61
2022/09/13 05:23:56;;;;;;;0.53;0.50;;;15.10;99.90;;;;;;5052354;28;20208;-61
2022/09/13 05:26:26;;;;;;;0.50;0.50;;;15.10;99.90;;;;;;5059613;28;20590;-63
2022/09/13 05:28:53;;;;;;;0.60;0.60;;;15.10;99.90;;;;;;5059270;28;20269;-61
2022/09/13 05:31:23;;;;;;;0.80;0.80;;;15.20;99.90;;;;;;5058376;28;20243;-62
2022/09/13 05:33:54;;;;;;;0.73;0.70;;;15.20;99.90;;;;;;5054535;28;20223;-63
2022/09/13 05:36:21;;;;;;;0.60;0.60;;;15.30;99.90;;;;;;5061609;28;20690;-63
2022/09/13 05:38:48;;;;;;;0.83;0.83;;;15.30;99.90;;;;;;5054932;28;20332;-63
2022/09/13 05:41:14;;;;;;;0.63;0.63;;;15.30;99.90;;;;;;5057289;28;20206;-62
2022/09/13 05:43:41;;;;;;;0.77;0.77;;;15.30;99.90;;;;;;5047071;28;20203;-63
2022/09/13 05:46:12;;;;;;;0.83;0.83;;;15.40;99.90;;;;;;5059958;28;20713;-62
2022/09/13 05:48:39;;;;;;;0.67;0.67;;;15.40;99.90;;;;;;5050296;28;20199;-62
2022/09/13 05:51:09;;;;;;;0.70;0.70;;;15.50;99.90;;;;;;5054772;28;20200;-63
2022/09/13 05:53:38;;;;;;;2.28;0.82;;;15.50;99.90;;;;;;5053152;28;20217;-63
2022/09/13 05:56:05;;;;;;;0.80;0.80;;;15.50;99.90;;;;;;5058742;28;20701;-61
2022/09/13 05:58:33;;;;;;;2.13;0.90;;;15.60;99.90;;;;;;5056856;28;20282;-62
2022/09/13 06:01:00;;;;;;;0.80;0.80;;;15.70;99.90;;;;;;5054507;28;20208;-63
2022/09/13 06:03:27;;;;;;;0.70;0.70;;;15.70;99.90;;;;;;5055952;28;20231;-60
2022/09/13 06:05:58;;;;;;;0.80;0.80;;;15.70;99.90;;;;;;5055425;28;20231;-60
2022/09/13 06:08:27;;;;;;;0.80;0.77;;;15.70;99.90;;;;;;5056846;28;20220;-61
2022/09/13 06:10:56;;;;;;;0.90;0.90;;;15.70;99.90;;;;;;5053097;28;20227;-61
2022/09/13 06:13:24;;;;;;;0.70;0.70;;;15.80;99.90;;;;;;5058304;28;20685;-61
2022/09/13 06:15:51;;;;;;;0.60;0.60;;;15.90;99.90;;;;;;5062325;28;20219;-61
2022/09/13 06:18:18;;;;;;;0.90;0.90;;;15.90;99.90;;;;;;5060205;28;20199;-61
2022/09/13 06:20:45;;;;;;;0.60;0.60;;;16.00;99.90;;;;;;5060674;28;20613;-61
2022/09/13 06:23:12;;;;;;;0.63;0.57;;;16.10;99.90;;;;;;5061255;28;20602;-61
2022/09/13 06:25:41;;;;;;;0.60;0.60;;;16.20;99.90;;;;;;5061218;28;20219;-62
2022/09/13 06:28:09;;;;;;;1.03;0.80;;;16.30;99.90;;;;;;5060049;28;20224;-62
2022/09/13 06:30:36;;;;;;;1.70;0.80;;;16.50;99.90;;;;;;5059362;28;20614;-62
2022/09/13 06:33:03;;;;;;;0.93;0.70;;;16.70;99.90;;;;;;5060786;28;20575;-61
2022/09/13 06:35:30;;;;;;;0.60;0.60;;;16.70;99.90;;;;;;5061043;28;20253;-62
2022/09/13 06:37:57;;;;;;;0.80;0.80;;;16.90;99.90;;;;;;5063516;28;20252;-62
2022/09/13 06:40:25;;;;;;;1.07;0.80;;;17.00;99.90;;;;;;5062996;28;20199;-62
2022/09/13 06:42:53;;;;;;;0.70;0.70;;;17.10;99.90;;;;;;5064194;28;20231;-62
2022/09/13 06:45:20;;;;;;;0.60;0.60;;;17.20;99.90;;;;;;5062716;28;20241;-63
2022/09/13 06:47:47;;;;;;;0.50;0.50;;;17.30;99.90;;;;;;5063254;28;20591;-63
2022/09/13 06:50:14;;;;;;;0.77;0.77;;;17.40;99.90;;;;;;5065250;28;20298;-60
2022/09/13 06:52:41;;;;;;;0.57;0.57;;;17.50;99.90;;;;;;5064360;28;20203;-62
2022/09/13 06:55:08;;;;;;;0.70;0.70;;;17.60;99.90;;;;;;5065566;28;20259;-63
2022/09/13 06:57:35;;;;;;;0.50;0.50;;;17.70;99.90;;;;;;5062605;28;20196;-62
2022/09/13 07:00:04;;;;;;;0.50;0.50;;;17.80;99.90;;;;;;5071464;28;20203;-61
2022/09/13 07:02:31;;;;;;;0.80;0.80;;;17.90;99.90;;;;;;5068499;28;20238;-62
2022/09/13 07:04:58;;;;;;;0.50;0.50;;;18.00;99.90;;;;;;5064160;28;20236;-62
2022/09/13 07:07:25;;;;;;;0.60;0.60;;;18.10;99.90;;;;;;5070273;28;20280;-62
2022/09/13 07:09:51;;;;;;;0.68;0.68;;;18.20;99.90;;;;;;5062357;28;20207;-62
2022/09/13 07:12:18;;;;;;;0.50;0.50;;;18.30;99.90;;;;;;5063267;28;20204;-62
2022/09/13 07:14:45;;;;;;;0.60;0.60;;;18.50;99.90;;;;;;5065107;28;20200;-61
2022/09/13 07:17:13;;;;;;;0.70;0.70;;;18.60;99.90;;;;;;5062409;28;20203;-62
2022/09/13 07:19:40;;;;;;;0.60;0.60;;;18.80;99.90;;;;;;5068506;28;20242;-62
2022/09/13 07:22:07;;;;;;;0.95;0.68;;;18.90;99.90;;;;;;5062131;28;20298;-61
2022/09/13 07:24:34;;;;;;;0.40;0.40;;;19.10;99.90;;;;;;5069789;28;20701;-61
2022/09/13 07:27:01;;;;;;;0.70;0.40;;;19.20;99.90;;;;;;5061709;28;20250;-61
2022/09/13 07:29:27;;;;;;;2.20;0.70;;;19.20;99.90;;;;;;5063918;28;20204;-60
2022/09/13 07:31:57;;;;;;;0.70;0.70;;;19.30;99.90;;;;;;5063699;28;20669;-61
2022/09/13 07:34:26;;;;;;;0.77;0.77;;;19.30;99.90;;;;;;5065054;28;20214;-61
2022/09/13 07:36:53;;;;;;;0.40;0.40;;;19.30;99.90;;;;;;5066056;28;20758;-61
2022/09/13 07:39:20;;;;;;;0.70;0.70;;;19.40;99.90;;;;;;5056888;28;20629;-60
2022/09/13 07:41:47;;;;;;;0.40;0.40;;;19.60;99.90;;;;;;5064661;28;20203;-62
2022/09/13 07:44:14;;;;;;;0.90;0.90;;;19.70;99.90;;;;;;5067737;28;20207;-62
2022/09/13 07:46:42;;;;;;;0.60;0.60;;;19.90;99.90;;;;;;5060680;28;20229;-61
2022/09/13 07:49:10;;;;;;;0.60;0.60;;;20.10;99.90;;;;;;5067316;28;20281;-61
2022/09/13 07:51:40;;;;;;;0.70;0.70;;;20.30;99.90;;;;;;5063780;28;20276;-61
2022/09/13 07:54:11;;;;;;;0.60;0.60;;;20.40;99.90;;;;;;5060631;28;20218;-62
2022/09/13 07:56:39;;;;;;;1.33;0.50;;;20.60;99.90;;;;;;5049863;28;20215;-62
2022/09/13 07:59:07;;;;;;;0.70;0.70;;;20.70;99.90;;;;;;5063977;28;20196;-60
2022/09/13 08:01:35;;;;;;;0.80;0.80;;;21.00;99.90;;;;;;5064916;28;20205;-62
2022/09/13 08:04:05;;;;;;;0.80;0.80;;;21.20;99.90;;;;;;5060715;28;20207;-61
2022/09/13 08:06:34;;;;;;;0.50;0.50;;;21.40;99.90;;;;;;5064387;28;20549;-62
2022/09/13 08:09:02;;;;;;;0.63;0.63;;;21.60;99.90;;;;;;5059886;28;20223;-62
2022/09/13 08:11:31;;;;;;;0.65;0.60;;;21.80;99.90;;;;;;5061281;28;20669;-62
2022/09/13 08:13:59;;;;;;;1.43;1.00;;;21.90;99.90;;;;;;5063611;28;20199;-62
2022/09/13 08:16:28;;;;;;;0.70;0.70;;;22.10;99.90;;;;;;5064276;28;20233;-62
2022/09/13 08:18:56;;;;;;;0.80;0.63;;;22.20;99.90;;;;;;5063772;28;20204;-61
2022/09/13 08:21:24;;;;;;;0.60;0.60;;;22.30;99.90;;;;;;5068771;28;20217;-62
2022/09/13 08:23:55;;;;;;;0.40;0.40;;;22.40;99.90;;;;;;5065318;28;20200;-62
2022/09/13 08:26:23;;;;;;;0.53;0.53;;;22.70;99.90;;;;;;5068401;28;20219;-63
2022/09/13 08:28:49;;;;;;;0.57;0.57;;;22.90;99.90;;;;;;5064677;28;20226;-62
2022/09/13 08:31:19;;;;;;;0.60;0.60;;;23.10;99.90;;;;;;5057807;28;20208;-63
2022/09/13 08:33:48;;;;;;;0.82;0.82;;;23.30;99.90;;;;;;5053816;28;20201;-63
2022/09/13 08:36:16;;;;;;;0.52;0.52;;;23.50;99.90;;;;;;5058044;28;20242;-62
2022/09/13 08:38:46;;;;;;;0.50;0.50;;;23.70;99.90;;;;;;5047730;28;20199;-63
2022/09/13 08:41:33;;;;;;;0.60;0.60;;;23.90;99.90;;;;;;5061252;28;20229;-60
2022/09/13 08:44:05;;;;;;;1.27;0.70;;;24.10;99.90;;;;;;5056061;28;20295;-60
2022/09/13 08:46:35;;;;;;;0.60;0.60;;;24.10;99.90;;;;;;5062408;28;20231;-62
2022/09/13 08:49:06;;;;;;;0.70;0.70;;;24.20;99.90;;;;;;5057422;28;20220;-62
2022/09/13 08:51:40;;;;;;;0.80;0.60;;;24.00;99.90;;;;;;5055607;28;20203;-62
2022/09/13 08:54:10;;;;;;;0.95;0.73;;;24.00;99.90;;;;;;5061360;28;20204;-61
2022/09/13 08:56:45;;;;;;;1.48;1.00;;;24.00;99.90;;;;;;5056797;28;20223;-61
2022/09/13 08:59:32;;;;;;;1.25;1.15;;;24.10;99.90;;;;;;5062581;28;20204;-62
2022/09/13 09:02:11;;;;;;;2.35;1.00;;;24.20;99.90;;;;;;5055761;28;20206;-63
2022/09/13 09:04:44;;;;;;;1.10;1.10;;;24.20;99.90;;;;;;5059059;28;20206;-60
2022/09/13 09:07:14;;;;;;;1.08;1.00;;;24.30;99.90;;;;;;5051496;28;20203;-60
2022/09/13 09:09:46;;;;;;;0.90;0.90;;;24.20;99.90;;;;;;5055105;28;20200;-61
2022/09/13 09:12:24;;;;;;;1.75;1.15;;;24.40;99.90;;;;;;5093506;22;20754;-66
2022/09/13 09:14:59;;;;;;;1.17;0.60;;;24.50;99.90;;;;;;5083958;28;20203;-66
2022/09/13 09:17:31;;;;;;;0.80;0.80;;;24.50;99.90;;;;;;5073075;28;20209;-65
2022/09/13 09:20:06;;;;;;;0.90;0.90;;;24.50;99.90;;;;;;5086917;28;20213;-66
2022/09/13 09:22:35;;;;;;;0.95;0.90;;;24.40;99.90;;;;;;5068303;28;20214;-65
2022/09/13 09:25:03;;;;;;;0.85;0.85;;;24.40;99.90;;;;;;5066853;28;20207;-65
2022/09/13 09:27:32;;;;;;;0.70;0.70;;;24.30;99.90;;;;;;5069062;28;20229;-66
2022/09/13 09:30:01;;;;;;;0.90;0.90;;;24.40;99.90;;;;;;5056378;28;20219;-66
2022/09/13 09:33:00;;;;;;;1.65;0.68;;;24.60;99.90;;;;;;5068795;28;20264;-65
2022/09/13 09:35:38;;;;;;;0.98;0.98;;;24.80;99.90;;;;;;5055853;28;20235;-66
2022/09/13 09:38:23;;;;;;;1.63;0.90;;;24.90;99.90;;;;;;5068177;28;20562;-66
2022/09/13 09:40:50;;;;;;;0.80;0.80;;;24.80;99.90;;;;;;5059634;28;20603;-65
2022/09/13 09:43:27;;;;;;;1.05;0.98;;;24.90;99.90;;;;;;5068466;28;20284;-65
2022/09/13 09:45:56;;;;;;;1.00;1.00;;;25.00;99.90;;;;;;5059917;28;20194;-66
2022/09/13 09:48:29;;;;;;;1.25;1.15;;;25.10;99.90;;;;;;5069373;28;20247;-65
2022/09/13 09:50:58;;;;;;;0.90;0.90;;;25.30;99.90;;;;;;5075555;28;20692;-66
2022/09/13 09:53:30;;;;;;;0.82;0.82;;;25.50;99.90;;;;;;5070869;28;20208;-66
2022/09/13 09:56:02;;;;;;;1.02;1.00;;;25.40;99.90;;;;;;5070736;28;20900;-66
2022/09/13 09:58:39;;;;;;;1.02;1.02;;;25.50;99.90;;;;;;5064183;28;20199;-65
2022/09/13 10:01:14;;;;;;;0.90;0.90;;;25.70;99.90;;;;;;5066177;28;20223;-66
2022/09/13 10:03:41;;;;;;;0.90;0.90;;;25.70;99.90;;;;;;5059445;28;20196;-66
2022/09/13 10:06:11;;;;;;;0.88;0.88;;;26.00;99.90;;;;;;5061647;28;20610;-66
2022/09/13 10:08:41;;;;;;;1.10;1.10;;;26.20;99.90;;;;;;5066673;28;20219;-67
2022/09/13 10:11:09;;;;;;;1.48;0.98;;;26.20;99.90;;;;;;5080787;28;20234;-66
2022/09/13 10:13:38;;;;;;;0.90;0.90;;;26.40;99.90;;;;;;5080401;28;20207;-67
2022/09/13 10:16:06;;;;;;;1.00;1.00;;;26.60;99.90;;;;;;5068163;28;20208;-67
2022/09/13 10:18:34;;;;;;;0.70;0.70;;;26.90;99.90;;;;;;5075954;28;20199;-66
2022/09/13 10:21:04;;;;;;;1.30;0.80;;;26.90;99.90;;;;;;5067489;28;20310;-68
2022/09/13 10:23:33;;;;;;;0.90;0.90;;;27.00;99.90;;;;;;5069341;28;20221;-66
2022/09/13 10:26:07;;;;;;;0.80;0.80;;;26.80;99.90;;;;;;5072392;28;20208;-67
2022/09/13 10:28:42;;;;;;;0.70;0.70;;;26.80;99.90;;;;;;5071621;28;20229;-65
2022/09/13 10:31:12;;;;;;;0.80;0.80;;;26.80;99.90;;;;;;5071567;28;20224;-66
2022/09/13 10:33:41;;;;;;;1.33;0.90;;;26.70;99.90;;;;;;5061392;28;20222;-66
2022/09/13 10:36:14;;;;;;;0.80;0.80;;;26.70;99.90;;;;;;5071924;28;20204;-66
2022/09/13 10:38:46;;;;;;;0.95;0.90;;;26.90;99.90;;;;;;5053491;28;20206;-67
2022/09/13 10:41:23;;;;;;;0.80;0.80;;;27.20;99.90;;;;;;5075230;28;20228;-66
2022/09/13 10:43:57;;;;;;;0.60;0.60;;;27.50;99.90;;;;;;5069891;28;20191;-66
2022/09/13 10:46:25;;;;;;;0.90;0.90;;;27.70;99.90;;;;;;5059218;28;20257;-65
2022/09/13 10:48:54;;;;;;;0.90;0.90;;;27.60;99.90;;;;;;5070090;28;20215;-65
2022/09/13 10:51:34;;;;;;;1.27;0.70;;;27.60;99.90;;;;;;5067381;28;20287;-65
2022/09/13 10:54:17;;;;;;;0.60;0.60;;;27.70;99.90;;;;;;5071579;28;20204;-67
2022/09/13 10:56:45;;;;;;;0.57;0.57;;;27.80;99.90;;;;;;5061532;28;20227;-66
2022/09/13 10:59:22;;;;;;;0.52;0.52;;;27.80;99.90;;;;;;5068209;28;20203;-66
2022/09/13 11:02:14;;;;;;;0.70;0.70;;;27.70;99.90;;;;;;5065073;28;20253;-66
2022/09/13 11:05:17;;;;;;;0.75;0.75;;;27.70;99.90;;;;;;5061406;28;20204;-65
2022/09/13 11:08:23;;;;;;;0.93;0.70;;;27.70;99.90;;;;;;5054395;28;20290;-66
2022/09/13 11:11:01;;;;;;;0.50;0.50;;;27.80;99.90;;;;;;5045694;28;20237;-65
2022/09/13 11:13:40;;;;;;;0.70;0.70;;;27.60;99.90;;;;;;5059651;28;20200;-66
2022/09/13 11:16:22;;;;;;;0.75;0.75;;;27.60;99.90;;;;;;5071367;28;20660;-67
2022/09/13 11:19:06;;;;;;;0.70;0.70;;;27.50;99.90;;;;;;5061093;28;20745;-67
2022/09/13 11:21:47;;;;;;;1.00;0.88;;;27.50;99.90;;;;;;5066741;28;20230;-66
2022/09/13 11:24:27;;;;;;;0.75;0.68;;;27.50;99.90;;;;;;5070455;28;20200;-66
2022/09/13 11:27:03;;;;;;;0.68;0.68;;;27.50;99.90;;;;;;5057496;28;20211;-65
2022/09/13 11:29:48;;;;;;;0.95;0.77;;;27.50;99.90;;;;;;5061425;28;20703;-66
2022/09/13 11:32:28;;;;;;;1.15;0.90;;;27.60;99.90;;;;;;5066486;28;20252;-65
2022/09/13 11:35:14;;;;;;;0.60;0.60;;;27.90;99.90;;;;;;5061240;28;20409;-66
2022/09/13 11:37:50;;;;;;;1.45;0.70;;;28.20;99.90;;;;;;5059915;28;20276;-66
2022/09/13 11:40:35;;;;;;;1.20;1.00;;;28.50;99.90;;;;;;5070779;28;20272;-67
2022/09/13 11:43:18;;;;;;;0.75;0.75;;;28.50;99.90;;;;;;5068748;28;20218;-67
2022/09/13 11:45:54;;;;;;;1.95;0.88;;;28.40;99.90;;;;;;5052486;28;20199;-66
2022/09/13 11:48:49;;;;;;;0.60;0.60;;;28.50;99.90;;;;;;5067939;28;20208;-66
2022/09/13 11:51:26;;;;;;;0.70;0.70;;;28.30;99.90;;;;;;5067846;28;20266;-66
2022/09/13 11:54:09;;;;;;;1.95;0.75;;;28.40;99.90;;;;;;5084745;28;20258;-67
2022/09/13 11:56:38;;;;;;;0.80;0.80;;;28.40;99.90;;;;;;5072711;28;20191;-66
2022/09/13 11:59:16;;;;;;;1.38;1.13;;;28.30;99.90;;;;;;5087066;28;20200;-66
2022/09/13 12:01:47;;;;;;;0.85;0.85;;;28.50;99.90;;;;;;5076464;28;20781;-67
2022/09/13 12:04:21;;;;;;;0.50;0.50;;;28.50;99.90;;;;;;5065522;28;20303;-66
2022/09/13 12:06:53;;;;;;;1.90;0.85;;;28.50;99.90;;;;;;5066880;28;20215;-66
2022/09/13 12:09:25;;;;;;;0.80;0.80;;;28.50;99.90;;;;;;5071055;28;20231;-66
2022/09/13 12:11:57;;;;;;;0.70;0.70;;;28.60;99.90;;;;;;5067623;28;20235;-66
2022/09/13 12:14:29;;;;;;;0.68;0.68;;;28.50;99.90;;;;;;5071180;28;20213;-66
2022/09/13 12:17:02;;;;;;;0.80;0.68;;;28.80;99.90;;;;;;5059917;28;20565;-65
2022/09/13 12:19:42;;;;;;;0.60;0.60;;;29.00;99.90;;;;;;5063152;28;20192;-65
2022/09/13 12:22:11;;;;;;;0.98;0.60;;;29.10;99.90;;;;;;5062929;28;20246;-66
2022/09/13 12:24:42;;;;;;;0.52;0.50;;;29.10;99.90;;;;;;5054360;28;20196;-67
2022/09/13 12:27:15;;;;;;;0.50;0.50;;;29.30;99.90;;;;;;5060667;28;20684;-64
2022/09/13 12:29:49;;;;;;;0.40;0.40;;;29.40;99.90;;;;;;5063224;28;20223;-67
2022/09/13 12:32:16;;;;;;;0.50;0.50;;;29.60;99.90;;;;;;5058782;28;20744;-66
2022/09/13 12:34:50;;;;;;;0.60;0.60;;;29.80;99.90;;;;;;5064458;28;20199;-65
2022/09/13 12:37:32;;;;;;;0.68;0.68;;;29.90;99.90;;;;;;5068869;28;20214;-66
2022/09/13 12:40:44;;;;;;;0.40;0.40;;;29.90;99.90;;;;;;5069221;28;20664;-66
2022/09/13 12:43:27;;;;;;;0.50;0.50;;;30.20;99.90;;;;;;5025095;28;20209;-65
2022/09/13 12:46:09;;;;;;;0.60;0.60;;;30.30;99.90;;;;;;5048507;28;20238;-67
2022/09/13 12:49:08;;;;;;;0.80;0.80;;;30.40;99.90;;;;;;5059910;28;20591;-66
2022/09/13 12:51:55;;;;;;;0.70;0.70;;;30.40;99.90;;;;;;5059467;28;20725;-67
2022/09/13 12:55:03;;;;;;;0.60;0.60;;;30.40;99.90;;;;;;5067522;28;20251;-67
2022/09/13 12:57:40;;;;;;;0.65;0.60;;;30.20;99.90;;;;;;5020161;28;20210;-66
2022/09/13 13:00:33;;;;;;;0.50;0.50;;;30.10;99.90;;;;;;5062920;28;20224;-65
2022/09/13 13:03:10;;;;;;;0.43;0.43;;;30.10;99.90;;;;;;5054234;28;20209;-66
2022/09/13 13:05:40;;;;;;;0.40;0.40;;;30.10;99.90;;;;;;5051614;28;20229;-67
2022/09/13 13:08:25;;;;;;;0.40;0.40;;;30.00;99.90;;;;;;5053126;28;20265;-65
2022/09/13 13:11:02;;;;;;;0.50;0.50;;;30.00;99.90;;;;;;5051355;28;20704;-65
2022/09/13 13:13:34;;;;;;;0.35;0.35;;;30.00;99.90;;;;;;5063156;28;20203;-65